KGVT/GVT METAR and TAF weather

Enter ICAO airport designator
Station Type Date Time Source
KGVT METAR 2021/09/28 16:15 UTC NOAA

KGVT 281615Z AUTO 13010KT 10SM OVC065 28/21 A2994 RMK AO2 TSNO T02780206


Station Type Date Time Source
KGVT Decoded METAR 2021/09/28 16:15 UTC NOAA

Greenville / Majors, TX, United States (KGVT) 33-04N 096-04W
Sep 28, 2021 - 12:15 PM EDT / 2021.09.28 1615 UTC
Wind: from the SE (130 degrees) at 12 MPH (10 KT):0
Visibility: 10 mile(s):0
Sky conditions: overcast
Temperature: 82.0 F (27.8 C)
Dew Point: 69.1 F (20.6 C)
Relative Humidity: 64%
Pressure (altimeter): 29.94 in. Hg (1013 hPa)
ob: KGVT 281615Z AUTO 13010KT 10SM OVC065 28/21 A2994 RMK AO2 TSNO T02780206
cycle: 16

Station Type Date Time Source
KGVT TAF UTC NOAA

Error!

Example: see airport list